createdAt,value
2022-08-17T00:00:33.295Z,25.33
2022-08-17T00:05:42.146Z,25.52
2022-08-17T00:10:45.926Z,25.60
2022-08-17T00:15:47.961Z,25.71
2022-08-17T00:20:50.178Z,25.56
2022-08-17T00:25:53.524Z,25.27
2022-08-17T00:30:55.602Z,25.30
2022-08-17T00:35:58.653Z,25.13
2022-08-17T00:41:01.701Z,24.93
2022-08-17T00:46:11.226Z,24.83
2022-08-17T00:51:18.439Z,24.79
2022-08-17T00:56:27.610Z,24.53
2022-08-17T01:01:30.369Z,24.30
2022-08-17T01:06:33.252Z,24.42
2022-08-17T01:11:37.173Z,24.26
2022-08-17T01:16:39.240Z,23.86
2022-08-17T01:21:51.413Z,23.92
2022-08-17T01:26:53.807Z,23.94
2022-08-17T01:32:00.981Z,23.89
2022-08-17T01:37:03.369Z,23.98
2022-08-17T01:42:08.968Z,24.11
2022-08-17T01:47:12.993Z,24.05
2022-08-17T01:52:15.961Z,24.01
2022-08-17T01:57:18.309Z,24.02
2022-08-17T02:02:30.327Z,23.82
2022-08-17T02:07:33.233Z,23.68
2022-08-17T02:12:55.720Z,23.68
2022-08-17T02:17:58.076Z,23.77
2022-08-17T02:23:01.544Z,23.75
2022-08-17T02:28:04.623Z,23.72
2022-08-17T02:33:09.364Z,23.64
2022-08-17T02:38:11.740Z,23.51
2022-08-17T02:43:13.813Z,23.39
2022-08-17T02:48:16.128Z,23.54
2022-08-17T02:53:35.892Z,23.38
2022-08-17T02:58:38.469Z,23.36
2022-08-17T03:03:40.790Z,23.16
2022-08-17T03:08:45.094Z,23.31
2022-08-17T03:13:47.112Z,23.62
2022-08-17T03:18:49.499Z,23.73
2022-08-17T03:23:54.583Z,23.70
2022-08-17T03:28:56.801Z,23.66
2022-08-17T03:33:58.814Z,23.73
2022-08-17T03:39:00.932Z,23.67
2022-08-17T03:44:03.549Z,23.70
2022-08-17T03:49:26.222Z,23.72
2022-08-17T03:54:46.868Z,23.70
2022-08-17T03:59:49.678Z,23.91
2022-08-17T04:04:52.539Z,23.92
2022-08-17T04:09:55.349Z,23.96
2022-08-17T04:14:57.892Z,24.14
2022-08-17T04:19:59.871Z,24.20
2022-08-17T04:25:22.357Z,24.24
2022-08-17T04:30:25.085Z,24.33
2022-08-17T04:35:30.500Z,24.32
2022-08-17T04:40:53.587Z,24.40
2022-08-17T04:45:59.496Z,24.80
2022-08-17T04:51:01.987Z,24.87
2022-08-17T04:56:04.473Z,25.24
2022-08-17T05:01:07.115Z,25.51
2022-08-17T05:06:09.430Z,25.52
2022-08-17T05:11:11.522Z,25.64
2022-08-17T05:16:13.576Z,25.63
2022-08-17T05:21:16.337Z,25.93
2022-08-17T05:26:26.124Z,25.97
2022-08-17T05:31:29.973Z,26.17
2022-08-17T05:36:43.515Z,26.58
2022-08-17T05:41:47.949Z,26.37
2022-08-17T05:46:52.207Z,26.25
2022-08-17T05:52:13.066Z,26.22
2022-08-17T05:57:53.645Z,25.49
2022-08-17T06:03:14.435Z,25.09
2022-08-17T06:08:39.782Z,25.23
2022-08-17T06:13:56.771Z,25.44
2022-08-17T06:19:02.587Z,25.99
2022-08-17T06:24:23.906Z,25.83
2022-08-17T06:29:39.109Z,26.23
2022-08-17T06:34:43.731Z,26.30
2022-08-17T06:39:48.941Z,26.19
2022-08-17T06:45:07.722Z,26.34
2022-08-17T06:50:23.192Z,26.40
2022-08-17T06:55:58.894Z,26.40
2022-08-17T07:01:06.721Z,27.07
2022-08-17T07:06:15.453Z,27.26
2022-08-17T07:11:46.637Z,27.82
2022-08-17T07:16:54.366Z,28.16
2022-08-17T07:22:05.592Z,28.97
2022-08-17T07:27:13.376Z,28.71
2022-08-17T07:32:19.649Z,28.50
2022-08-17T07:37:21.550Z,28.42
2022-08-17T07:42:23.670Z,27.91
2022-08-17T07:47:44.112Z,27.99
2022-08-17T07:52:47.880Z,27.26
2022-08-17T07:57:57.949Z,27.53
2022-08-17T08:03:04.889Z,27.81
2022-08-17T08:08:28.186Z,27.66
2022-08-17T08:13:30.822Z,27.75
2022-08-17T08:18:54.787Z,27.72
2022-08-17T08:24:13.373Z,27.93
2022-08-17T08:29:41.357Z,28.74
2022-08-17T08:35:30.991Z,28.95
2022-08-17T08:40:51.924Z,29.49
2022-08-17T08:46:03.147Z,29.90
2022-08-17T08:51:28.013Z,29.87
2022-08-17T08:57:21.588Z,28.95
2022-08-17T09:02:37.154Z,29.02
2022-08-17T09:07:49.631Z,29.50
2022-08-17T09:13:10.287Z,29.97
2022-08-17T09:19:01.796Z,30.17
2022-08-17T09:24:12.714Z,30.00
2022-08-17T09:29:16.824Z,30.04
2022-08-17T09:34:29.590Z,30.49
2022-08-17T09:39:42.736Z,30.74
2022-08-17T09:44:55.326Z,31.60
2022-08-17T09:50:02.413Z,31.27
2022-08-17T09:55:05.578Z,31.15
2022-08-17T10:00:30.542Z,31.28
2022-08-17T10:05:56.623Z,31.70
2022-08-17T10:11:17.045Z,31.90
2022-08-17T10:16:29.202Z,32.47
2022-08-17T10:22:00.686Z,33.34
2022-08-17T10:27:11.168Z,33.42
2022-08-17T10:32:28.038Z,33.04
2022-08-17T10:37:43.507Z,33.56
2022-08-17T10:42:53.950Z,33.91
2022-08-17T10:48:06.331Z,32.96
2022-08-17T10:53:08.885Z,32.52
2022-08-17T10:58:21.883Z,32.66
2022-08-17T11:03:25.515Z,32.32
2022-08-17T11:08:57.491Z,32.92
2022-08-17T11:14:17.007Z,33.74
2022-08-17T11:19:24.972Z,33.76
2022-08-17T11:25:19.719Z,33.94
2022-08-17T11:30:40.376Z,33.97
2022-08-17T11:35:49.983Z,33.91
2022-08-17T11:41:13.608Z,33.17
2022-08-17T11:46:52.683Z,34.12
2022-08-17T11:51:54.666Z,33.43
2022-08-17T11:56:59.032Z,33.95
2022-08-17T12:02:06.733Z,34.06
2022-08-17T12:07:30.161Z,33.96
2022-08-17T12:12:35.958Z,33.50
2022-08-17T12:17:40.691Z,34.06
2022-08-17T12:23:16.063Z,33.13
2022-08-17T12:28:30.777Z,33.43
2022-08-17T12:33:34.122Z,33.75
2022-08-17T12:38:38.426Z,34.18
2022-08-17T12:43:40.465Z,33.42
2022-08-17T12:48:58.952Z,33.77
2022-08-17T12:54:02.162Z,34.53
2022-08-17T12:59:04.199Z,34.09
2022-08-17T13:04:07.235Z,33.90
2022-08-17T13:09:18.021Z,33.43
2022-08-17T13:14:20.282Z,33.38
2022-08-17T13:19:32.974Z,32.99
2022-08-17T13:24:53.203Z,32.34
2022-08-17T13:29:59.725Z,32.76
2022-08-17T13:35:12.481Z,33.07
2022-08-17T13:40:18.994Z,34.32
2022-08-17T13:45:35.377Z,34.40
2022-08-17T13:50:58.817Z,34.39
2022-08-17T13:56:38.541Z,34.41
2022-08-17T14:01:52.576Z,34.83
2022-08-17T14:07:12.097Z,33.58
2022-08-17T14:12:16.658Z,33.08
2022-08-17T14:17:19.598Z,32.31
2022-08-17T14:22:32.503Z,32.12
2022-08-17T14:27:47.082Z,32.73
2022-08-17T14:32:57.551Z,32.89
2022-08-17T14:38:00.025Z,33.27
2022-08-17T14:43:02.149Z,32.69
2022-08-17T14:48:07.896Z,32.24
2022-08-17T14:53:12.660Z,32.16
2022-08-17T14:58:14.785Z,32.73
2022-08-17T15:03:18.393Z,32.52
2022-08-17T15:08:20.463Z,32.31
2022-08-17T15:13:25.058Z,33.30
2022-08-17T15:18:27.468Z,33.35
2022-08-17T15:23:29.661Z,33.08
2022-08-17T15:28:32.214Z,33.47
2022-08-17T15:33:34.462Z,32.84
2022-08-17T15:38:39.422Z,33.16
2022-08-17T15:43:43.650Z,32.89
2022-08-17T15:48:53.116Z,32.69
2022-08-17T15:54:04.503Z,32.35
2022-08-17T15:59:21.526Z,30.93
2022-08-17T16:04:29.969Z,31.41
2022-08-17T16:09:33.247Z,31.18
2022-08-17T16:14:36.489Z,30.99
2022-08-17T16:19:40.282Z,31.00
2022-08-17T16:24:56.843Z,30.68
2022-08-17T16:30:00.828Z,30.40
2022-08-17T16:35:08.901Z,30.45
2022-08-17T16:40:11.964Z,30.32
2022-08-17T16:45:18.538Z,30.35
2022-08-17T16:50:23.806Z,30.26
2022-08-17T16:55:26.869Z,30.40
2022-08-17T17:00:29.959Z,30.86
2022-08-17T17:05:34.974Z,31.34
2022-08-17T17:10:46.213Z,31.60
2022-08-17T17:15:55.065Z,31.79
2022-08-17T17:20:57.991Z,31.65
2022-08-17T17:26:12.059Z,30.99
2022-08-17T17:31:17.572Z,30.74
2022-08-17T17:36:40.192Z,30.27
2022-08-17T17:41:47.464Z,29.83
2022-08-17T17:46:55.181Z,29.44
2022-08-17T17:52:13.381Z,29.18
2022-08-17T17:57:24.670Z,29.06
2022-08-17T18:03:01.443Z,28.87
2022-08-17T18:08:35.697Z,28.57
2022-08-17T18:13:46.926Z,28.40
2022-08-17T18:18:52.295Z,28.18
2022-08-17T18:23:58.147Z,28.14
2022-08-17T18:29:32.071Z,27.89
2022-08-17T18:34:47.379Z,27.70
2022-08-17T18:39:50.239Z,27.70
2022-08-17T18:44:55.275Z,27.76
2022-08-17T18:50:19.061Z,27.74
2022-08-17T18:55:23.769Z,27.58
2022-08-17T19:00:39.542Z,27.55
2022-08-17T19:05:52.032Z,27.38
2022-08-17T19:11:22.026Z,27.26
2022-08-17T19:16:39.091Z,27.09
2022-08-17T19:22:16.995Z,27.11
2022-08-17T19:27:46.333Z,26.98
2022-08-17T19:32:48.790Z,26.66
2022-08-17T19:38:13.511Z,26.65
2022-08-17T19:44:07.168Z,26.71
2022-08-17T19:49:33.503Z,26.70
2022-08-17T19:54:55.381Z,26.54
2022-08-17T20:00:01.848Z,26.50
2022-08-17T20:05:16.827Z,26.37
2022-08-17T20:10:26.762Z,26.31
2022-08-17T20:15:31.627Z,26.26
2022-08-17T20:20:42.022Z,26.27
2022-08-17T20:26:10.079Z,26.06
2022-08-17T20:32:05.497Z,25.84
2022-08-17T20:37:13.638Z,25.84
2022-08-17T20:42:15.667Z,25.92
2022-08-17T20:47:27.127Z,25.91
2022-08-17T20:52:52.471Z,25.87
2022-08-17T20:57:54.548Z,25.79
2022-08-17T21:03:25.316Z,25.65
2022-08-17T21:08:59.123Z,25.61
2022-08-17T21:14:10.422Z,25.30
2022-08-17T21:20:09.773Z,25.23
2022-08-17T21:25:21.198Z,25.48
2022-08-17T21:30:29.406Z,25.22
2022-08-17T21:35:47.911Z,25.04
2022-08-17T21:40:52.802Z,25.02
2022-08-17T21:46:23.531Z,24.93
2022-08-17T21:51:28.739Z,25.13
2022-08-17T21:56:33.717Z,25.10
2022-08-17T22:01:38.550Z,24.92
2022-08-17T22:06:57.335Z,25.01
2022-08-17T22:12:13.731Z,25.04
2022-08-17T22:17:20.478Z,24.84
2022-08-17T22:22:31.158Z,24.65
2022-08-17T22:27:50.865Z,24.50
2022-08-17T22:32:53.636Z,24.51
2022-08-17T22:37:56.746Z,24.46
2022-08-17T22:43:00.757Z,24.42
2022-08-17T22:48:05.274Z,24.36
2022-08-17T22:53:34.628Z,24.19
2022-08-17T22:59:01.798Z,24.15
2022-08-17T23:04:07.599Z,24.03
2022-08-17T23:09:09.844Z,24.00
2022-08-17T23:14:13.753Z,23.95
2022-08-17T23:19:19.216Z,24.01
2022-08-17T23:24:23.972Z,24.18
2022-08-17T23:29:29.635Z,24.23
2022-08-17T23:34:31.857Z,24.02
2022-08-17T23:39:34.688Z,23.95
2022-08-17T23:44:38.259Z,23.81
2022-08-17T23:49:41.346Z,23.82
2022-08-17T23:54:46.671Z,23.76
2022-08-17T23:59:49.333Z,23.89
